createdAt,value
2023-05-25T00:01:01.740Z,19.35
2023-05-25T00:02:08.666Z,19.35
2023-05-25T00:03:11.486Z,19.35
2023-05-25T00:04:17.563Z,19.36
2023-05-25T00:05:21.329Z,19.37
2023-05-25T00:06:26.391Z,19.39
2023-05-25T00:07:29.181Z,19.40
2023-05-25T00:08:33.061Z,19.40
2023-05-25T00:09:36.258Z,19.41
2023-05-25T00:10:40.439Z,19.43
2023-05-25T00:11:43.171Z,19.42
2023-05-25T00:12:47.156Z,19.44
2023-05-25T00:13:50.302Z,19.44
2023-05-25T00:14:54.266Z,19.44
2023-05-25T00:15:57.068Z,19.47
2023-05-25T00:17:03.722Z,19.48
2023-05-25T00:18:07.876Z,19.49
2023-05-25T00:19:11.864Z,19.50
2023-05-25T00:20:15.242Z,19.51
2023-05-25T00:21:20.745Z,19.51
2023-05-25T00:22:23.441Z,19.52
2023-05-25T00:23:27.517Z,19.52
2023-05-25T00:24:30.848Z,19.52
2023-05-25T00:25:34.613Z,19.50
2023-05-25T00:26:37.466Z,19.51
2023-05-25T00:27:41.395Z,19.50
2023-05-25T00:28:44.007Z,19.47
2023-05-25T00:29:48.641Z,19.47
2023-05-25T00:30:51.427Z,19.46
2023-05-25T00:31:57.910Z,19.40
2023-05-25T00:33:01.561Z,19.45
2023-05-25T00:34:06.986Z,19.42
2023-05-25T00:35:10.224Z,19.42
2023-05-25T00:36:14.131Z,19.40
2023-05-25T00:37:17.000Z,19.38
2023-05-25T00:38:21.351Z,19.37
2023-05-25T00:39:24.181Z,19.36
2023-05-25T00:40:28.031Z,19.36
2023-05-25T00:41:32.442Z,19.36
2023-05-25T00:42:36.567Z,19.36
2023-05-25T00:43:39.261Z,19.35
2023-05-25T00:44:44.156Z,19.37
2023-05-25T00:45:47.254Z,19.39
2023-05-25T00:46:53.052Z,19.38
2023-05-25T00:47:56.331Z,19.39
2023-05-25T00:49:00.331Z,19.40
2023-05-25T00:50:08.813Z,19.40
2023-05-25T00:51:15.965Z,19.40
2023-05-25T00:52:18.858Z,19.41
2023-05-25T00:53:23.184Z,19.42
2023-05-25T00:54:27.894Z,19.42
2023-05-25T00:55:35.236Z,19.43
2023-05-25T00:56:41.385Z,19.45
2023-05-25T00:57:48.839Z,19.45
2023-05-25T00:58:55.002Z,19.47
2023-05-25T01:00:00.625Z,19.47
2023-05-25T01:01:06.561Z,19.49
2023-05-25T01:02:12.111Z,19.51
2023-05-25T01:03:18.195Z,19.52
2023-05-25T01:04:24.822Z,19.53
2023-05-25T01:05:32.261Z,19.54
2023-05-25T01:06:39.912Z,19.54
2023-05-25T01:07:44.743Z,19.58
2023-05-25T01:08:53.533Z,19.59
2023-05-25T01:09:59.307Z,19.61
2023-05-25T01:11:05.803Z,19.63
2023-05-25T01:12:10.478Z,19.64
2023-05-25T01:13:17.908Z,19.66
2023-05-25T01:14:21.963Z,19.68
2023-05-25T01:15:26.654Z,19.66
2023-05-25T01:16:30.341Z,19.71
2023-05-25T01:17:38.456Z,19.72
2023-05-25T01:18:42.235Z,19.72
2023-05-25T01:19:54.817Z,19.73
2023-05-25T01:21:13.627Z,19.75
2023-05-25T01:22:23.412Z,19.77
2023-05-25T01:23:33.388Z,19.78
2023-05-25T01:24:42.246Z,19.78
2023-05-25T01:25:48.677Z,19.80
2023-05-25T01:26:57.770Z,19.80
2023-05-25T01:28:19.455Z,19.83
2023-05-25T01:29:25.028Z,19.83
2023-05-25T01:30:29.053Z,19.84
2023-05-25T01:31:36.848Z,19.85
2023-05-25T01:32:42.732Z,19.86
2023-05-25T01:33:48.625Z,19.85
2023-05-25T01:34:54.014Z,19.86
2023-05-25T01:35:58.368Z,19.87
2023-05-25T01:37:04.797Z,19.87
2023-05-25T01:38:11.168Z,19.88
2023-05-25T01:39:17.135Z,19.88
2023-05-25T01:40:19.926Z,19.89
2023-05-25T01:41:23.775Z,19.91
2023-05-25T01:42:26.605Z,19.91
2023-05-25T01:43:30.470Z,19.90
2023-05-25T01:44:33.491Z,19.93
2023-05-25T01:45:37.825Z,19.93
2023-05-25T01:46:41.719Z,19.93
2023-05-25T01:47:55.174Z,19.93
2023-05-25T01:49:10.090Z,19.92
2023-05-25T01:50:28.372Z,19.90
2023-05-25T01:51:37.267Z,19.90
2023-05-25T01:52:49.164Z,19.90
2023-05-25T01:53:57.307Z,19.91
2023-05-25T01:55:07.357Z,19.89
2023-05-25T01:56:14.180Z,19.89
2023-05-25T01:57:21.061Z,19.87
2023-05-25T01:58:26.309Z,19.86
2023-05-25T01:59:31.449Z,19.87
2023-05-25T02:00:36.157Z,19.86
2023-05-25T02:01:42.317Z,19.86
2023-05-25T02:02:47.232Z,19.87
2023-05-25T02:03:51.479Z,19.87
2023-05-25T02:04:54.748Z,19.87
2023-05-25T02:06:00.286Z,19.87
2023-05-25T02:07:04.578Z,19.87
2023-05-25T02:08:09.748Z,19.85
2023-05-25T02:09:12.697Z,19.85
2023-05-25T02:10:16.627Z,19.86
2023-05-25T02:11:19.883Z,19.86
2023-05-25T02:12:23.921Z,19.88
2023-05-25T02:13:26.777Z,19.89
2023-05-25T02:14:31.179Z,19.89
2023-05-25T02:15:34.539Z,19.89
2023-05-25T02:16:39.410Z,19.89
2023-05-25T02:17:43.622Z,19.89
2023-05-25T02:18:47.445Z,19.90
2023-05-25T02:19:53.305Z,19.86
2023-05-25T02:20:57.150Z,19.92
2023-05-25T02:22:02.360Z,19.94
2023-05-25T02:23:05.233Z,19.95
2023-05-25T02:24:11.320Z,19.96
2023-05-25T02:25:14.076Z,19.98
2023-05-25T02:26:17.963Z,19.99
2023-05-25T02:27:21.008Z,20.01
2023-05-25T02:28:25.286Z,20.03
2023-05-25T02:29:28.272Z,20.05
2023-05-25T02:30:32.167Z,20.07
2023-05-25T02:31:34.893Z,20.10
2023-05-25T02:32:38.927Z,20.12
2023-05-25T02:33:41.587Z,20.14
2023-05-25T02:34:45.402Z,20.15
2023-05-25T02:35:48.212Z,20.17
2023-05-25T02:36:52.226Z,20.20
2023-05-25T02:37:55.090Z,20.21
2023-05-25T02:38:59.419Z,20.24
2023-05-25T02:40:04.444Z,20.27
2023-05-25T02:41:09.313Z,20.29
2023-05-25T02:42:12.002Z,20.32
2023-05-25T02:43:16.102Z,20.33
2023-05-25T02:44:19.217Z,20.37
2023-05-25T02:45:23.290Z,20.39
2023-05-25T02:46:26.074Z,20.42
2023-05-25T02:47:30.727Z,20.45
2023-05-25T02:48:33.471Z,20.47
2023-05-25T02:49:37.535Z,20.51
2023-05-25T02:50:40.359Z,20.55
2023-05-25T02:51:47.948Z,20.57
2023-05-25T02:52:50.743Z,20.62
2023-05-25T02:53:55.023Z,20.65
2023-05-25T02:54:59.149Z,20.70
2023-05-25T02:56:11.124Z,20.74
2023-05-25T02:57:14.168Z,20.78
2023-05-25T02:58:18.080Z,20.82
2023-05-25T02:59:43.620Z,20.90
2023-05-25T03:00:47.075Z,20.93
2023-05-25T03:01:51.771Z,20.98
2023-05-25T03:02:54.782Z,21.02
2023-05-25T03:03:58.983Z,21.05
2023-05-25T03:05:04.306Z,21.09
2023-05-25T03:06:09.531Z,21.14
2023-05-25T03:07:12.522Z,21.19
2023-05-25T03:08:16.659Z,21.23
2023-05-25T03:09:19.591Z,21.28
2023-05-25T03:10:26.284Z,21.31
2023-05-25T03:11:30.891Z,21.34
2023-05-25T03:12:35.548Z,21.38
2023-05-25T03:13:38.934Z,21.43
2023-05-25T03:14:42.828Z,21.47
2023-05-25T03:15:46.619Z,21.52
2023-05-25T03:16:53.478Z,21.56
2023-05-25T03:18:01.641Z,21.59
2023-05-25T03:19:10.868Z,21.64
2023-05-25T03:20:15.830Z,21.69
2023-05-25T03:21:24.037Z,21.74
2023-05-25T03:22:27.414Z,21.79
2023-05-25T03:23:31.300Z,21.84
2023-05-25T03:24:34.682Z,21.88
2023-05-25T03:25:40.238Z,21.91
2023-05-25T03:26:44.823Z,21.95
2023-05-25T03:27:48.794Z,21.96
2023-05-25T03:28:51.611Z,21.98
2023-05-25T03:29:55.474Z,22.01
2023-05-25T03:30:58.457Z,22.01
2023-05-25T03:32:02.757Z,22.02
2023-05-25T03:33:07.257Z,22.05
2023-05-25T03:34:17.932Z,22.06
2023-05-25T03:35:20.751Z,22.07
2023-05-25T03:36:27.774Z,22.08
2023-05-25T03:37:30.735Z,22.11
2023-05-25T03:38:39.796Z,22.12
2023-05-25T03:39:42.926Z,22.12
2023-05-25T03:40:46.871Z,22.13
2023-05-25T03:41:51.452Z,22.12
2023-05-25T03:42:55.888Z,22.07
2023-05-25T03:43:58.594Z,22.07
2023-05-25T03:45:02.425Z,22.02
2023-05-25T03:46:06.616Z,22.02
2023-05-25T03:47:10.560Z,22.02
2023-05-25T03:48:13.427Z,22.03
2023-05-25T03:49:17.563Z,22.01
2023-05-25T03:50:20.749Z,21.99
2023-05-25T03:51:24.854Z,21.98
2023-05-25T03:52:27.806Z,21.92
2023-05-25T03:53:31.931Z,21.92
2023-05-25T03:54:34.589Z,21.91
2023-05-25T03:55:39.082Z,21.94
2023-05-25T03:56:42.429Z,21.96
2023-05-25T03:57:47.786Z,21.93
2023-05-25T03:58:50.700Z,21.89
2023-05-25T03:59:55.621Z,21.86
2023-05-25T04:00:58.699Z,21.84
2023-05-25T04:02:02.982Z,21.86
2023-05-25T04:03:07.232Z,21.85
2023-05-25T04:04:11.652Z,21.80
2023-05-25T04:05:14.519Z,21.78
2023-05-25T04:06:19.582Z,21.80
2023-05-25T04:07:23.949Z,21.78
2023-05-25T04:08:30.482Z,21.75
2023-05-25T04:09:34.105Z,21.74
2023-05-25T04:10:38.209Z,21.72
2023-05-25T04:11:41.060Z,21.74
2023-05-25T04:12:46.577Z,21.75
2023-05-25T04:13:49.470Z,21.76
2023-05-25T04:14:54.203Z,21.77
2023-05-25T04:15:57.034Z,21.78
2023-05-25T04:17:05.624Z,21.79
2023-05-25T04:18:08.491Z,21.82
2023-05-25T04:19:12.392Z,21.82
2023-05-25T04:20:15.437Z,21.83
2023-05-25T04:21:19.312Z,21.87
2023-05-25T04:22:22.044Z,21.87
2023-05-25T04:23:26.303Z,21.91
2023-05-25T04:24:29.679Z,21.94
2023-05-25T04:25:33.666Z,21.95
2023-05-25T04:26:36.550Z,22.01
2023-05-25T04:27:40.938Z,22.03
2023-05-25T04:28:46.437Z,22.08
2023-05-25T04:29:57.653Z,22.10
2023-05-25T04:31:20.403Z,22.16
2023-05-25T04:32:30.307Z,22.17
2023-05-25T04:33:51.435Z,22.18
2023-05-25T04:35:00.522Z,22.23
2023-05-25T04:36:11.310Z,22.30
2023-05-25T04:37:15.308Z,22.33
2023-05-25T04:38:18.117Z,22.38
2023-05-25T04:39:22.003Z,22.43
2023-05-25T04:40:28.829Z,22.50
2023-05-25T04:41:34.153Z,22.51
2023-05-25T04:42:42.060Z,22.55
2023-05-25T04:44:04.594Z,22.61
2023-05-25T04:45:12.383Z,22.67
2023-05-25T04:46:17.238Z,22.70
2023-05-25T04:47:21.458Z,22.76
2023-05-25T04:48:25.178Z,22.76
2023-05-25T04:49:29.281Z,22.75
2023-05-25T04:50:32.340Z,22.74
2023-05-25T04:51:37.305Z,22.74
2023-05-25T04:52:40.091Z,22.74
2023-05-25T04:53:46.385Z,22.73
2023-05-25T04:54:49.368Z,22.72
2023-05-25T04:55:55.028Z,22.75
2023-05-25T04:56:59.954Z,22.79
2023-05-25T04:58:05.966Z,22.82
2023-05-25T04:59:10.574Z,22.86
2023-05-25T05:00:15.517Z,22.84
2023-05-25T05:01:20.854Z,22.87
2023-05-25T05:02:25.932Z,22.89
2023-05-25T05:03:29.759Z,22.90
2023-05-25T05:04:33.733Z,22.89
2023-05-25T05:05:37.638Z,22.89
2023-05-25T05:06:44.796Z,22.82
2023-05-25T05:07:54.269Z,22.82
2023-05-25T05:08:58.376Z,22.83
2023-05-25T05:10:02.364Z,22.84
2023-05-25T05:11:05.694Z,22.82
2023-05-25T05:12:12.009Z,22.82
2023-05-25T05:13:19.323Z,22.79
2023-05-25T05:14:24.802Z,22.83
2023-05-25T05:15:28.836Z,22.81
2023-05-25T05:16:35.609Z,22.85
2023-05-25T05:17:39.736Z,22.84
2023-05-25T05:18:42.704Z,22.85
2023-05-25T05:19:46.459Z,22.83
2023-05-25T05:20:49.986Z,22.80
2023-05-25T05:21:54.737Z,22.83
2023-05-25T05:22:57.824Z,22.79
2023-05-25T05:24:01.782Z,22.76
2023-05-25T05:25:06.429Z,22.75
2023-05-25T05:26:11.815Z,22.73
2023-05-25T05:27:17.887Z,22.74
2023-05-25T05:28:27.659Z,22.74
2023-05-25T05:29:34.437Z,22.74
2023-05-25T05:30:37.232Z,22.76
2023-05-25T05:31:41.304Z,22.77
2023-05-25T05:32:46.014Z,22.76
2023-05-25T05:33:51.272Z,22.74
2023-05-25T05:34:53.997Z,22.79
2023-05-25T05:36:18.424Z,22.82
2023-05-25T05:37:22.386Z,22.88
2023-05-25T05:38:26.381Z,22.91
2023-05-25T05:39:30.329Z,23.00
2023-05-25T05:40:33.262Z,23.08
2023-05-25T05:41:37.037Z,23.14
2023-05-25T05:42:41.194Z,23.21
2023-05-25T05:43:46.820Z,23.26
2023-05-25T05:44:51.145Z,23.26
2023-05-25T05:45:54.895Z,23.26
2023-05-25T05:47:01.415Z,23.29
2023-05-25T05:48:10.294Z,23.34
2023-05-25T05:49:13.164Z,23.37
2023-05-25T05:50:17.105Z,23.40
2023-05-25T05:51:20.124Z,23.46
2023-05-25T05:52:24.242Z,23.47
2023-05-25T05:53:27.231Z,23.49
2023-05-25T05:54:31.350Z,23.49
2023-05-25T05:55:39.941Z,23.51
2023-05-25T05:56:44.310Z,23.49
2023-05-25T05:57:48.951Z,23.54
2023-05-25T05:58:54.423Z,23.51
2023-05-25T05:59:58.678Z,23.52
2023-05-25T06:01:03.681Z,23.48
2023-05-25T06:02:07.749Z,23.49
2023-05-25T06:03:11.948Z,23.47
2023-05-25T06:04:16.062Z,23.44
2023-05-25T06:05:21.639Z,23.44
2023-05-25T06:06:24.521Z,23.50
2023-05-25T06:07:29.287Z,23.54
2023-05-25T06:08:32.396Z,23.58
2023-05-25T06:09:36.844Z,23.62
2023-05-25T06:10:40.574Z,23.61
2023-05-25T06:11:44.653Z,23.65
2023-05-25T06:12:48.631Z,23.71
2023-05-25T06:14:28.526Z,23.73
2023-05-25T06:15:37.954Z,23.73
2023-05-25T06:16:45.778Z,23.76
2023-05-25T06:17:49.645Z,23.80
2023-05-25T06:18:53.116Z,23.76
2023-05-25T06:19:57.773Z,23.76
2023-05-25T06:21:02.009Z,23.77
2023-05-25T06:22:06.614Z,23.77
2023-05-25T06:23:11.681Z,23.83
2023-05-25T06:24:16.625Z,23.87
2023-05-25T06:25:20.517Z,23.89
2023-05-25T06:26:25.135Z,23.90
2023-05-25T06:27:28.038Z,23.91
2023-05-25T06:28:32.159Z,23.97
2023-05-25T06:29:35.217Z,23.98
2023-05-25T06:30:40.702Z,23.99
2023-05-25T06:31:43.749Z,24.03
2023-05-25T06:32:47.582Z,24.07
2023-05-25T06:33:50.463Z,24.11
2023-05-25T06:34:55.540Z,24.11
2023-05-25T06:36:00.795Z,24.18
2023-05-25T06:37:07.360Z,24.21
2023-05-25T06:38:12.567Z,24.24
2023-05-25T06:39:16.612Z,24.30
2023-05-25T06:40:20.060Z,24.33
2023-05-25T06:41:23.873Z,24.37
2023-05-25T06:42:26.627Z,24.41
2023-05-25T06:43:51.722Z,24.43
2023-05-25T06:45:09.145Z,24.49
2023-05-25T06:46:18.769Z,24.52
2023-05-25T06:47:41.166Z,24.53
2023-05-25T06:48:45.744Z,24.56
2023-05-25T06:49:49.472Z,24.58
2023-05-25T06:50:53.482Z,24.58
2023-05-25T06:51:56.753Z,24.57
2023-05-25T06:53:00.757Z,24.60
2023-05-25T06:54:03.752Z,24.62
2023-05-25T06:55:09.601Z,24.62
2023-05-25T06:56:12.303Z,24.63
2023-05-25T06:57:16.615Z,24.65
2023-05-25T06:58:19.597Z,24.66
2023-05-25T06:59:23.748Z,24.70
2023-05-25T07:00:28.569Z,24.67
2023-05-25T07:01:32.962Z,24.73
2023-05-25T07:02:37.071Z,24.77
2023-05-25T07:03:39.946Z,24.77
2023-05-25T07:04:43.974Z,24.80
2023-05-25T07:05:46.794Z,24.81
2023-05-25T07:06:50.484Z,24.84
2023-05-25T07:07:53.435Z,24.89
2023-05-25T07:08:57.324Z,24.92
2023-05-25T07:10:01.180Z,24.98
2023-05-25T07:11:05.402Z,25.01
2023-05-25T07:12:10.196Z,25.08
2023-05-25T07:13:13.891Z,25.12
2023-05-25T07:14:17.944Z,25.16
2023-05-25T07:15:22.978Z,25.20
2023-05-25T07:16:26.380Z,25.21
2023-05-25T07:17:31.858Z,25.21
2023-05-25T07:18:34.552Z,25.25
2023-05-25T07:19:38.546Z,25.23
2023-05-25T07:20:42.684Z,25.22
2023-05-25T07:21:46.955Z,25.20
2023-05-25T07:22:49.637Z,25.18
2023-05-25T07:23:54.033Z,25.16
2023-05-25T07:24:56.752Z,25.16
2023-05-25T07:26:00.642Z,25.19
2023-05-25T07:27:05.066Z,25.21
2023-05-25T07:28:08.194Z,25.23
2023-05-25T07:29:12.574Z,25.25
2023-05-25T07:30:15.633Z,25.27
2023-05-25T07:31:19.410Z,25.29
2023-05-25T07:32:22.715Z,25.34
2023-05-25T07:33:27.880Z,25.38
2023-05-25T07:34:31.685Z,25.42
2023-05-25T07:35:35.616Z,25.46
2023-05-25T07:36:39.584Z,25.47
2023-05-25T07:37:42.244Z,25.49
2023-05-25T07:38:46.117Z,25.53
2023-05-25T07:39:50.763Z,25.52
2023-05-25T07:40:54.756Z,25.53
2023-05-25T07:41:58.697Z,25.54
2023-05-25T07:43:02.726Z,25.55
2023-05-25T07:44:06.507Z,25.53
2023-05-25T07:45:10.243Z,25.53
2023-05-25T07:46:14.251Z,25.50
2023-05-25T07:47:17.126Z,25.48
2023-05-25T07:48:20.899Z,25.49
2023-05-25T07:49:26.346Z,25.52
2023-05-25T07:50:31.814Z,25.56
2023-05-25T07:51:34.879Z,25.56
2023-05-25T07:52:39.642Z,25.57
2023-05-25T07:53:42.977Z,25.59
2023-05-25T07:54:46.889Z,25.59
2023-05-25T07:55:49.897Z,25.61
2023-05-25T07:56:53.648Z,25.63
2023-05-25T07:57:56.533Z,25.60
2023-05-25T07:59:01.250Z,25.61
2023-05-25T08:00:06.506Z,25.58
2023-05-25T08:01:17.614Z,25.64
2023-05-25T08:02:21.954Z,25.68
2023-05-25T08:03:39.892Z,25.68
2023-05-25T08:04:49.992Z,25.69
2023-05-25T08:05:52.955Z,25.71
2023-05-25T08:06:57.632Z,25.73
2023-05-25T08:08:00.566Z,25.75
2023-05-25T08:09:06.653Z,25.82
2023-05-25T08:10:10.575Z,25.81
2023-05-25T08:11:14.778Z,25.82
2023-05-25T08:13:24.702Z,25.86
2023-05-25T08:14:28.520Z,25.89
2023-05-25T08:15:31.659Z,25.90
2023-05-25T08:16:35.475Z,25.94
2023-05-25T08:17:38.364Z,25.99
2023-05-25T08:18:44.483Z,26.03
2023-05-25T08:19:49.803Z,26.08
2023-05-25T08:20:52.590Z,26.06
2023-05-25T08:21:56.538Z,26.09
2023-05-25T08:22:59.492Z,26.14
2023-05-25T08:24:05.425Z,26.17
2023-05-25T08:25:09.843Z,26.21
2023-05-25T08:26:34.257Z,26.22
2023-05-25T08:27:38.144Z,26.24
2023-05-25T08:28:40.944Z,26.24
2023-05-25T08:29:44.840Z,26.29
2023-05-25T08:30:47.917Z,26.32
2023-05-25T08:31:52.046Z,26.35
2023-05-25T08:32:54.922Z,26.37
2023-05-25T08:33:58.900Z,26.41
2023-05-25T08:35:04.978Z,26.43
2023-05-25T08:36:09.474Z,26.47
2023-05-25T08:37:12.569Z,26.48
2023-05-25T08:38:16.539Z,26.52
2023-05-25T08:39:20.380Z,26.56
2023-05-25T08:40:25.102Z,26.55
2023-05-25T08:41:28.540Z,26.57
2023-05-25T08:42:32.429Z,26.57
2023-05-25T08:43:35.383Z,26.58
2023-05-25T08:44:40.615Z,26.62
2023-05-25T08:45:47.075Z,26.63
2023-05-25T08:46:51.636Z,26.66
2023-05-25T08:47:59.605Z,26.67
2023-05-25T08:49:10.667Z,26.72
2023-05-25T08:50:18.363Z,26.73
2023-05-25T08:51:22.564Z,26.78
2023-05-25T08:52:29.950Z,26.82
2023-05-25T08:53:37.351Z,26.83
2023-05-25T08:54:46.052Z,26.82
2023-05-25T08:55:52.213Z,26.79
2023-05-25T08:57:02.943Z,26.75
2023-05-25T08:58:13.928Z,26.77
2023-05-25T08:59:30.151Z,26.78
2023-05-25T09:00:36.745Z,26.82
2023-05-25T09:01:47.372Z,26.85
2023-05-25T09:02:56.194Z,26.86
2023-05-25T09:04:01.637Z,26.91
2023-05-25T09:05:07.430Z,26.94
2023-05-25T09:06:13.245Z,26.95
2023-05-25T09:07:17.687Z,26.91
2023-05-25T09:08:22.908Z,26.90
2023-05-25T09:09:27.176Z,26.92
2023-05-25T09:10:32.806Z,26.90
2023-05-25T09:11:40.058Z,26.89
2023-05-25T09:12:48.267Z,26.85
2023-05-25T09:13:51.518Z,26.87
2023-05-25T09:14:55.454Z,26.92
2023-05-25T09:16:00.412Z,26.93
2023-05-25T09:17:03.450Z,26.90
2023-05-25T09:18:07.373Z,26.95
2023-05-25T09:19:10.096Z,26.95
2023-05-25T09:20:15.238Z,26.96
2023-05-25T09:21:19.436Z,27.00
2023-05-25T09:22:23.465Z,27.04
2023-05-25T09:23:26.450Z,27.06
2023-05-25T09:24:30.714Z,27.10
2023-05-25T09:25:34.211Z,27.16
2023-05-25T09:26:38.293Z,27.17
2023-05-25T09:27:42.623Z,27.12
2023-05-25T09:28:49.642Z,27.07
2023-05-25T09:29:52.931Z,27.09
2023-05-25T09:30:58.082Z,27.09
2023-05-25T09:32:01.455Z,27.05
2023-05-25T09:33:14.862Z,27.00
2023-05-25T09:34:18.673Z,26.99
2023-05-25T09:35:24.988Z,27.05
2023-05-25T09:36:30.499Z,27.05
2023-05-25T09:37:33.410Z,27.11
2023-05-25T09:38:38.033Z,27.12
2023-05-25T09:39:43.013Z,27.21
2023-05-25T09:40:46.950Z,27.28
2023-05-25T09:41:51.016Z,27.32
2023-05-25T09:42:54.843Z,27.38
2023-05-25T09:44:10.527Z,27.41
2023-05-25T09:45:14.634Z,27.46
2023-05-25T09:46:18.879Z,27.50
2023-05-25T09:47:22.830Z,27.53
2023-05-25T09:48:27.151Z,27.55
2023-05-25T09:49:30.170Z,27.62
2023-05-25T09:50:34.129Z,27.70
2023-05-25T09:51:39.044Z,27.71
2023-05-25T09:52:43.726Z,27.73
2023-05-25T09:53:47.678Z,27.80
2023-05-25T09:54:53.006Z,27.80
2023-05-25T09:55:58.026Z,27.87
2023-05-25T09:57:05.607Z,27.80
2023-05-25T09:58:09.344Z,27.82
2023-05-25T09:59:12.730Z,27.84
2023-05-25T10:00:17.681Z,27.83
2023-05-25T10:01:20.517Z,27.82
2023-05-25T10:02:24.958Z,27.83
2023-05-25T10:03:28.845Z,27.90
2023-05-25T10:04:31.989Z,27.93
2023-05-25T10:05:35.802Z,27.94
2023-05-25T10:06:40.352Z,28.03
2023-05-25T10:07:46.228Z,28.03
2023-05-25T10:08:51.759Z,28.08
2023-05-25T10:09:56.231Z,28.08
2023-05-25T10:11:00.567Z,28.12
2023-05-25T10:12:03.626Z,28.14
2023-05-25T10:13:09.722Z,28.18
2023-05-25T10:14:18.116Z,28.23
2023-05-25T10:15:23.183Z,28.30
2023-05-25T10:16:30.279Z,28.29
2023-05-25T10:17:38.094Z,28.35
2023-05-25T10:18:47.782Z,28.39
2023-05-25T10:19:58.957Z,28.44
2023-05-25T10:21:04.974Z,28.46
2023-05-25T10:22:17.957Z,28.49
2023-05-25T10:23:22.275Z,28.53
2023-05-25T10:24:33.256Z,28.63
2023-05-25T10:25:42.155Z,28.74
2023-05-25T10:26:49.487Z,28.81
2023-05-25T10:27:59.692Z,28.88
2023-05-25T10:29:04.809Z,28.93
2023-05-25T10:30:10.869Z,29.01
2023-05-25T10:31:16.198Z,29.09
2023-05-25T10:32:38.709Z,29.22
2023-05-25T10:33:43.585Z,29.28
2023-05-25T10:34:48.403Z,29.37
2023-05-25T10:36:11.865Z,29.43
2023-05-25T10:37:17.511Z,29.52
2023-05-25T10:38:22.409Z,29.51
2023-05-25T10:39:26.039Z,29.64
2023-05-25T10:40:29.896Z,29.67
2023-05-25T10:41:32.906Z,29.76
2023-05-25T10:42:38.437Z,29.85
2023-05-25T10:43:41.554Z,29.91
2023-05-25T10:44:46.521Z,30.01
2023-05-25T10:45:50.055Z,30.07
2023-05-25T10:46:54.435Z,30.15
2023-05-25T10:47:59.477Z,30.17
2023-05-25T10:49:03.254Z,30.20
2023-05-25T10:50:08.364Z,30.28
2023-05-25T10:51:39.970Z,30.30
2023-05-25T10:53:05.093Z,30.35
2023-05-25T10:54:08.353Z,30.34
2023-05-25T10:55:12.752Z,30.36
2023-05-25T10:56:34.558Z,30.34
2023-05-25T10:57:37.438Z,30.31
2023-05-25T10:58:44.982Z,30.30
2023-05-25T10:59:51.882Z,30.35
2023-05-25T11:01:16.978Z,30.42
2023-05-25T11:02:23.706Z,30.50
2023-05-25T11:04:03.331Z,30.57
2023-05-25T11:05:35.757Z,30.69
2023-05-25T11:07:13.619Z,30.83
2023-05-25T11:08:51.406Z,30.96
2023-05-25T11:10:00.656Z,31.11
2023-05-25T11:11:23.801Z,31.22
2023-05-25T11:12:28.826Z,31.28
2023-05-25T11:13:41.328Z,31.32
2023-05-25T11:14:45.358Z,31.40
2023-05-25T11:15:48.807Z,31.43
2023-05-25T11:17:08.265Z,31.45
2023-05-25T11:18:34.891Z,31.55
2023-05-25T11:19:47.924Z,31.70
2023-05-25T11:21:12.181Z,31.81
2023-05-25T11:22:18.086Z,31.90
2023-05-25T11:23:24.293Z,31.99
2023-05-25T11:24:45.336Z,32.02
2023-05-25T11:25:51.153Z,32.17
2023-05-25T11:26:56.255Z,32.25
2023-05-25T11:28:18.811Z,32.31
2023-05-25T11:29:22.156Z,32.31
2023-05-25T11:30:44.356Z,32.32
2023-05-25T11:31:52.781Z,32.40
2023-05-25T11:33:00.738Z,32.31
2023-05-25T11:34:05.770Z,32.30
2023-05-25T11:35:10.493Z,32.33
2023-05-25T11:36:34.264Z,32.40
2023-05-25T11:37:41.775Z,32.34
2023-05-25T11:38:56.297Z,32.33
2023-05-25T11:40:09.535Z,32.44
2023-05-25T11:41:37.338Z,32.52
2023-05-25T11:42:43.400Z,32.59
2023-05-25T11:43:47.264Z,32.65
2023-05-25T11:44:51.735Z,32.72
2023-05-25T11:45:57.793Z,32.67
2023-05-25T11:47:05.248Z,32.69
2023-05-25T11:48:14.806Z,32.66
2023-05-25T11:49:21.597Z,32.67
2023-05-25T11:50:25.531Z,32.63
2023-05-25T11:51:30.288Z,32.58
2023-05-25T11:52:34.207Z,32.63
2023-05-25T11:53:57.092Z,32.56
2023-05-25T11:55:00.952Z,32.60
2023-05-25T11:56:08.358Z,32.66
2023-05-25T11:57:49.838Z,32.81
2023-05-25T11:58:54.378Z,32.80
2023-05-25T12:00:00.613Z,32.80
2023-05-25T12:01:23.843Z,32.73
2023-05-25T12:02:26.839Z,32.67
2023-05-25T12:03:31.778Z,32.59
2023-05-25T12:04:35.952Z,32.60
2023-05-25T12:05:39.331Z,32.54
2023-05-25T12:06:43.194Z,32.60
2023-05-25T12:07:48.021Z,32.62
2023-05-25T12:08:50.746Z,32.60
2023-05-25T12:10:05.701Z,32.59
2023-05-25T12:11:09.716Z,32.54
2023-05-25T12:12:13.549Z,32.41
2023-05-25T12:13:17.681Z,32.44
2023-05-25T12:14:22.534Z,32.36
2023-05-25T12:15:25.974Z,32.44
2023-05-25T12:16:30.590Z,32.38
2023-05-25T12:17:35.684Z,32.54
2023-05-25T12:18:39.644Z,32.59
2023-05-25T12:19:43.668Z,32.62
2023-05-25T12:20:47.850Z,32.55
2023-05-25T12:21:52.149Z,32.67
2023-05-25T12:22:56.341Z,32.72
2023-05-25T12:23:59.239Z,32.66
2023-05-25T12:25:03.078Z,32.66
2023-05-25T12:26:14.235Z,32.62
2023-05-25T12:27:21.270Z,32.55
2023-05-25T12:28:26.804Z,32.55
2023-05-25T12:29:29.715Z,32.56
2023-05-25T12:30:33.619Z,32.62
2023-05-25T12:31:38.979Z,32.61
2023-05-25T12:33:02.799Z,32.56
2023-05-25T12:34:10.116Z,32.63
2023-05-25T12:35:12.859Z,32.63
2023-05-25T12:36:16.799Z,32.62
2023-05-25T12:37:21.932Z,32.70
2023-05-25T12:38:24.907Z,32.64
2023-05-25T12:39:39.621Z,32.67
2023-05-25T12:40:43.147Z,32.64
2023-05-25T12:41:49.455Z,32.63
2023-05-25T12:42:59.093Z,32.60
2023-05-25T12:44:04.436Z,32.46
2023-05-25T12:45:09.486Z,32.51
2023-05-25T12:46:12.521Z,32.52
2023-05-25T12:47:20.024Z,32.50
2023-05-25T12:48:28.154Z,32.46
2023-05-25T12:49:32.252Z,32.52
2023-05-25T12:50:37.291Z,32.52
2023-05-25T12:51:40.593Z,32.58
2023-05-25T12:52:46.736Z,32.45
2023-05-25T12:53:50.963Z,32.45
2023-05-25T12:54:55.121Z,32.46
2023-05-25T12:56:03.661Z,32.52
2023-05-25T12:57:08.118Z,32.53
2023-05-25T12:58:28.561Z,32.52
2023-05-25T12:59:33.723Z,32.44
2023-05-25T13:00:39.140Z,32.41
2023-05-25T13:01:42.150Z,32.28
2023-05-25T13:02:47.989Z,32.20
2023-05-25T13:03:54.099Z,32.25
2023-05-25T13:04:58.203Z,32.26
2023-05-25T13:06:02.911Z,32.25
2023-05-25T13:07:08.644Z,32.26
2023-05-25T13:08:12.687Z,32.32
2023-05-25T13:09:15.646Z,32.27
2023-05-25T13:10:20.143Z,32.20
2023-05-25T13:11:23.890Z,32.23
2023-05-25T13:12:27.571Z,32.26
2023-05-25T13:13:30.282Z,32.22
2023-05-25T13:14:35.567Z,32.26
2023-05-25T13:15:39.346Z,32.33
2023-05-25T13:16:42.114Z,32.16
2023-05-25T13:17:46.565Z,31.94
2023-05-25T13:18:49.372Z,31.78
2023-05-25T13:19:53.289Z,31.53
2023-05-25T13:20:57.773Z,31.31
2023-05-25T13:22:00.877Z,31.24
2023-05-25T13:23:06.266Z,31.27
2023-05-25T13:24:09.273Z,31.04
2023-05-25T13:25:13.817Z,30.91
2023-05-25T13:26:17.908Z,30.76
2023-05-25T13:27:20.757Z,30.84
2023-05-25T13:28:24.581Z,30.85
2023-05-25T13:29:27.213Z,30.95
2023-05-25T13:30:32.592Z,30.88
2023-05-25T13:31:35.314Z,30.71
2023-05-25T13:32:39.382Z,30.52
2023-05-25T13:33:42.157Z,30.45
2023-05-25T13:34:45.936Z,30.31
2023-05-25T13:35:58.696Z,30.18
2023-05-25T13:37:02.993Z,30.06
2023-05-25T13:38:05.947Z,29.90
2023-05-25T13:39:13.611Z,29.78
2023-05-25T13:40:16.852Z,29.69
2023-05-25T13:41:20.879Z,29.48
2023-05-25T13:42:25.364Z,29.40
2023-05-25T13:43:29.589Z,29.31
2023-05-25T13:44:34.168Z,29.19
2023-05-25T13:45:38.933Z,29.18
2023-05-25T13:46:42.906Z,29.14
2023-05-25T13:47:46.529Z,29.12
2023-05-25T13:48:50.739Z,29.12
2023-05-25T13:49:53.620Z,29.07
2023-05-25T13:50:57.418Z,29.10
2023-05-25T13:52:01.194Z,29.09
2023-05-25T13:53:03.951Z,29.06
2023-05-25T13:54:07.910Z,28.99
2023-05-25T13:55:10.531Z,28.96
2023-05-25T13:56:14.677Z,28.89
2023-05-25T13:57:18.399Z,28.86
2023-05-25T13:58:22.016Z,28.83
2023-05-25T13:59:25.939Z,28.81
2023-05-25T14:00:28.725Z,28.75
2023-05-25T14:01:34.747Z,28.75
2023-05-25T14:02:37.783Z,28.72
2023-05-25T14:03:41.748Z,28.71
2023-05-25T14:04:44.747Z,28.69
2023-05-25T14:05:48.695Z,28.66
2023-05-25T14:06:51.785Z,28.66
2023-05-25T14:07:56.492Z,28.61
2023-05-25T14:08:59.483Z,28.59
2023-05-25T14:10:03.356Z,28.56